createdAt,value
2018-09-23T00:00:09.339Z,15.1
2018-09-23T00:00:59.399Z,15.1
2018-09-23T00:01:49.481Z,15.1
2018-09-23T00:02:39.548Z,15.1
2018-09-23T00:03:29.609Z,15.1
2018-09-23T00:04:19.661Z,15.1
2018-09-23T00:05:09.734Z,15.1
2018-09-23T00:05:59.502Z,15
2018-09-23T00:06:49.907Z,15.1
2018-09-23T00:07:40.173Z,15.1
2018-09-23T00:08:29.973Z,15
2018-09-23T00:09:19.756Z,15
2018-09-23T00:10:10.392Z,15
2018-09-23T00:10:59.884Z,15
2018-09-23T00:11:50.532Z,15
2018-09-23T00:12:40.281Z,15
2018-09-23T00:13:30.355Z,15
2018-09-23T00:14:20.429Z,15
2018-09-23T00:15:10.489Z,15
2018-09-23T00:16:00.536Z,14.9
2018-09-23T00:16:50.599Z,15
2018-09-23T00:17:40.668Z,15
2018-09-23T00:18:30.743Z,15
2018-09-23T00:19:20.795Z,14.9
2018-09-23T00:20:10.568Z,14.9
2018-09-23T00:21:00.968Z,14.9
2018-09-23T00:21:50.963Z,14.9
2018-09-23T00:22:41.070Z,14.9
2018-09-23T00:23:31.115Z,14.9
2018-09-23T00:24:20.893Z,14.9
2018-09-23T00:25:10.950Z,14.9
2018-09-23T00:26:01.302Z,14.9
2018-09-23T00:26:51.390Z,14.9
2018-09-23T00:27:41.730Z,14.9
2018-09-23T00:28:31.502Z,14.9
2018-09-23T00:29:21.263Z,14.9
2018-09-23T00:30:11.330Z,14.9
2018-09-23T00:31:01.740Z,14.9
2018-09-23T00:31:51.453Z,14.9
2018-09-23T00:32:41.802Z,14.9
2018-09-23T00:33:31.581Z,14.9
2018-09-23T00:34:21.652Z,14.9
2018-09-23T00:35:12.004Z,14.9
2018-09-23T00:36:02.375Z,14.9
2018-09-23T00:36:51.848Z,14.9
2018-09-23T00:55:57.068Z,14.9
2018-09-23T00:56:47.053Z,14.9
2018-09-23T00:57:37.397Z,14.9
2018-09-23T00:58:27.495Z,14.9
2018-09-23T00:59:17.534Z,14.9
2018-09-23T01:00:07.574Z,14.9
2018-09-23T01:00:57.932Z,14.9
2018-09-23T01:01:47.710Z,14.9
2018-09-23T01:02:37.767Z,14.9
2018-09-23T01:03:27.820Z,14.9
2018-09-23T01:04:17.879Z,14.9
2018-09-23T01:05:07.937Z,14.9
2018-09-23T01:05:58.217Z,14.9
2018-09-23T01:06:48.317Z,14.9
2018-09-23T01:07:38.142Z,14.8
2018-09-23T01:08:28.213Z,14.8
2018-09-23T01:09:18.257Z,14.8
2018-09-23T01:10:08.337Z,14.8
2018-09-23T01:10:58.522Z,14.8
2018-09-23T01:11:48.129Z,14.9
2018-09-23T01:12:38.639Z,14.8
2018-09-23T01:13:28.603Z,14.8
2018-09-23T01:14:18.350Z,14.9
2018-09-23T01:15:08.689Z,14.8
2018-09-23T01:15:58.196Z,14.8
2018-09-23T01:16:49.126Z,14.8
2018-09-23T01:17:38.896Z,14.8
2018-09-23T01:18:28.663Z,14.8
2018-09-23T01:19:19.017Z,14.8
2018-09-23T01:20:09.071Z,14.8
2018-09-23T01:20:59.117Z,14.8
2018-09-23T01:21:48.916Z,14.8
2018-09-23T01:22:39.263Z,14.8
2018-09-23T01:23:29.046Z,14.8
2018-09-23T01:24:19.407Z,14.8
2018-09-23T01:25:09.512Z,14.8
2018-09-23T01:25:59.531Z,14.8
2018-09-23T01:26:49.303Z,14.8
2018-09-23T01:27:39.655Z,14.8
2018-09-23T01:28:29.709Z,14.8
2018-09-23T01:29:19.770Z,14.8
2018-09-23T01:30:09.843Z,14.8
2018-09-23T01:30:59.898Z,14.8
2018-09-23T01:31:49.960Z,14.8
2018-09-23T01:32:40.025Z,14.8
2018-09-23T01:33:30.085Z,14.8
2018-09-23T01:34:20.161Z,14.8
2018-09-23T01:35:10.216Z,14.8
2018-09-23T01:36:00.299Z,14.8
2018-09-23T01:36:49.772Z,14.8
2018-09-23T01:37:40.453Z,14.8
2018-09-23T01:38:30.467Z,14.8
2018-09-23T01:39:20.540Z,14.8
2018-09-23T01:40:10.302Z,14.8
2018-09-23T01:41:00.655Z,14.8
2018-09-23T01:41:50.974Z,14.7
2018-09-23T01:42:41.080Z,14.7
2018-09-23T01:43:30.565Z,14.7
2018-09-23T01:44:20.907Z,14.7
2018-09-23T01:45:10.979Z,14.7
2018-09-23T01:46:01.035Z,14.7
2018-09-23T01:46:51.108Z,14.7
2018-09-23T01:47:41.175Z,14.7
2018-09-23T01:48:31.253Z,14.7
2018-09-23T01:49:21.309Z,14.7
2018-09-23T01:50:11.352Z,14.7
2018-09-23T01:51:00.842Z,14.7
2018-09-23T01:51:51.479Z,14.7
2018-09-23T01:52:41.554Z,14.6
2018-09-23T01:53:31.842Z,14.7
2018-09-23T01:54:21.677Z,14.7
2018-09-23T01:55:11.732Z,14.7
2018-09-23T01:56:01.786Z,14.7
2018-09-23T01:56:51.567Z,14.7
2018-09-23T01:57:41.969Z,14.7
2018-09-23T01:58:32.099Z,14.6
2018-09-23T01:59:21.764Z,14.6
2018-09-23T02:00:12.114Z,14.6
2018-09-23T02:01:01.884Z,14.6
2018-09-23T02:01:52.244Z,14.6
2018-09-23T02:02:42.012Z,14.6
2018-09-23T02:03:31.788Z,14.6
2018-09-23T02:04:22.154Z,14.6
2018-09-23T02:05:12.208Z,14.6
2018-09-23T02:06:02.583Z,14.6
2018-09-23T02:06:52.330Z,14.6
2018-09-23T02:07:42.916Z,14.6
2018-09-23T02:08:32.751Z,14.6
2018-09-23T02:09:22.511Z,14.6
2018-09-23T02:10:12.865Z,14.6
2018-09-23T02:11:02.936Z,14.6
2018-09-23T02:11:52.988Z,14.6
2018-09-23T02:12:43.113Z,14.6
2018-09-23T02:13:33.123Z,14.6
2018-09-23T02:14:22.896Z,14.6
2018-09-23T02:15:13.255Z,14.6
2018-09-23T02:16:03.303Z,14.6
2018-09-23T02:16:53.362Z,14.6
2018-09-23T02:17:43.427Z,14.6
2018-09-23T02:18:33.500Z,14.5
2018-09-23T02:19:23.564Z,14.6
2018-09-23T02:20:13.625Z,14.5
2018-09-23T02:21:03.777Z,14.5
2018-09-23T02:21:53.751Z,14.5
2018-09-23T02:22:43.520Z,14.5
2018-09-23T02:23:34.120Z,14.5
2018-09-23T02:24:23.648Z,14.5
2018-09-23T02:25:13.717Z,14.5
2018-09-23T02:26:04.070Z,14.4
2018-09-23T02:26:53.842Z,14.5
2018-09-23T02:27:43.912Z,14.4
2018-09-23T02:28:33.964Z,14.4
2018-09-23T02:29:24.036Z,14.4
2018-09-23T02:30:14.390Z,14.4
2018-09-23T02:31:04.442Z,14.4
2018-09-23T02:31:54.510Z,14.4
2018-09-23T02:32:44.587Z,14.4
2018-09-23T02:33:34.342Z,14.4
2018-09-23T02:34:24.968Z,14.4
2018-09-23T02:35:14.746Z,14.4
2018-09-23T02:36:04.818Z,14.4
2018-09-23T02:36:54.903Z,14.4
2018-09-23T02:37:44.668Z,14.4
2018-09-23T02:38:35.015Z,14.4
2018-09-23T02:39:25.090Z,14.4
2018-09-23T02:40:15.427Z,14.4
2018-09-23T02:41:04.640Z,14.4
2018-09-23T02:41:55.263Z,14.3
2018-09-23T02:42:45.031Z,14.3
2018-09-23T02:43:35.383Z,14.3
2018-09-23T02:44:25.448Z,14.3
2018-09-23T02:45:15.553Z,14.3
2018-09-23T02:46:05.578Z,14.3
2018-09-23T02:46:55.357Z,14.3
2018-09-23T02:47:45.693Z,14.3
2018-09-23T02:48:35.758Z,14.3
2018-09-23T02:49:25.828Z,14.3
2018-09-23T02:50:15.888Z,14.3
2018-09-23T02:51:05.950Z,14.2
2018-09-23T02:51:56.028Z,14.2
2018-09-23T02:52:45.788Z,14.2
2018-09-23T02:53:36.140Z,14.2
2018-09-23T02:54:26.243Z,14.1
2018-09-23T02:55:16.282Z,14.2
2018-09-23T02:56:06.042Z,14.2
2018-09-23T02:56:56.405Z,14.1
2018-09-23T02:57:46.162Z,14.1
2018-09-23T02:58:36.517Z,14.1
2018-09-23T02:59:26.579Z,14.1
2018-09-23T03:00:16.650Z,14.1
2018-09-23T03:01:06.704Z,14.1
2018-09-23T03:01:56.486Z,14.1
2018-09-23T03:02:46.826Z,14.1
2018-09-23T03:03:36.917Z,14
2018-09-23T03:04:26.672Z,14
2018-09-23T03:05:17.018Z,14
2018-09-23T03:06:06.814Z,14
2018-09-23T03:06:57.163Z,14
2018-09-23T03:07:47.207Z,13.9
2018-09-23T03:08:37.266Z,13.9
2018-09-23T03:09:27.330Z,13.9
2018-09-23T03:10:17.111Z,13.9
2018-09-23T03:11:07.474Z,13.9
2018-09-23T03:11:57.530Z,13.9
2018-09-23T03:12:47.597Z,13.9
2018-09-23T03:13:37.649Z,13.8
2018-09-23T03:14:27.430Z,13.8
2018-09-23T03:15:17.782Z,13.8
2018-09-23T03:16:07.832Z,13.8
2018-09-23T03:16:57.936Z,13.8
2018-09-23T03:17:47.700Z,13.8
2018-09-23T03:18:37.756Z,13.8
2018-09-23T03:19:28.096Z,13.8
2018-09-23T03:20:18.159Z,13.8
2018-09-23T03:21:08.244Z,13.8
2018-09-23T03:21:58.309Z,13.7
2018-09-23T03:22:48.071Z,13.7
2018-09-23T03:23:38.418Z,13.7
2018-09-23T03:24:28.733Z,13.7
2018-09-23T03:25:18.611Z,13.7
2018-09-23T03:26:08.612Z,13.7
2018-09-23T03:26:58.366Z,13.6
2018-09-23T03:27:48.736Z,13.6
2018-09-23T03:28:38.796Z,13.6
2018-09-23T03:29:28.857Z,13.6
2018-09-23T03:30:19.215Z,13.6
2018-09-23T03:31:08.996Z,13.6
2018-09-23T03:31:58.812Z,13.6
2018-09-23T03:32:49.118Z,13.6
2018-09-23T03:33:39.164Z,13.6
2018-09-23T03:34:29.233Z,13.5
2018-09-23T03:35:19.288Z,13.5
2018-09-23T03:36:09.608Z,13.5
2018-09-23T03:36:59.119Z,13.5
2018-09-23T03:37:49.476Z,13.4
2018-09-23T03:38:39.550Z,13.4
2018-09-23T03:39:29.321Z,13.4
2018-09-23T03:40:19.678Z,13.4
2018-09-23T03:41:09.456Z,13.4
2018-09-23T03:41:59.785Z,13.4
2018-09-23T03:42:49.862Z,13.4
2018-09-23T03:43:39.933Z,13.4
2018-09-23T03:44:29.690Z,13.4
2018-09-23T03:45:20.034Z,13.4
2018-09-23T03:46:09.542Z,13.3
2018-09-23T03:46:59.595Z,13.3
2018-09-23T03:47:50.239Z,13.3
2018-09-23T03:48:40.000Z,13.3
2018-09-23T03:49:30.363Z,13.3
2018-09-23T03:50:20.388Z,13.3
2018-09-23T03:51:10.487Z,13.3
2018-09-23T03:52:00.540Z,13.3
2018-09-23T03:52:50.609Z,13.2
2018-09-23T03:53:40.392Z,13.2
2018-09-23T03:54:30.739Z,13.2
2018-09-23T03:55:20.787Z,13.2
2018-09-23T03:56:10.858Z,13.2
2018-09-23T03:57:00.925Z,13.1
2018-09-23T03:57:50.796Z,13.1
2018-09-23T03:58:41.055Z,13.1
2018-09-23T03:59:31.114Z,13.1
2018-09-23T04:00:21.173Z,13.1
2018-09-23T04:01:11.229Z,13.1
2018-09-23T04:02:01.003Z,13.1
2018-09-23T04:02:51.380Z,13.1
2018-09-23T04:03:40.848Z,13.1
2018-09-23T04:04:30.917Z,13.1
2018-09-23T04:05:21.575Z,13
2018-09-23T04:06:11.325Z,13
2018-09-23T04:07:01.699Z,13
2018-09-23T04:07:51.751Z,13
2018-09-23T04:08:41.511Z,13
2018-09-23T04:09:31.579Z,12.9
2018-09-23T04:10:21.941Z,12.9
2018-09-23T04:11:11.695Z,12.9
2018-09-23T04:12:02.300Z,12.9
2018-09-23T04:12:52.119Z,12.9
2018-09-23T04:13:42.171Z,12.9
2018-09-23T04:14:32.249Z,12.9
2018-09-23T04:15:22.296Z,12.8
2018-09-23T04:16:12.361Z,12.8
2018-09-23T04:17:02.434Z,12.8
2018-09-23T04:17:52.483Z,12.8
2018-09-23T04:18:42.545Z,12.8
2018-09-23T04:19:32.615Z,12.8
2018-09-23T04:20:22.680Z,12.8
2018-09-23T04:21:12.746Z,12.8
2018-09-23T04:22:02.806Z,12.7
2018-09-23T04:22:52.861Z,12.7
2018-09-23T04:23:42.918Z,12.7
2018-09-23T04:24:32.695Z,12.7
2018-09-23T04:25:23.064Z,12.7
2018-09-23T04:26:13.130Z,12.6
2018-09-23T04:27:02.911Z,12.6
2018-09-23T04:27:53.234Z,12.6
2018-09-23T04:28:43.315Z,12.6
2018-09-23T04:29:33.380Z,12.6
2018-09-23T04:30:23.211Z,12.6
2018-09-23T04:31:13.511Z,12.6
2018-09-23T04:32:03.575Z,12.6
2018-09-23T04:32:53.630Z,12.6
2018-09-23T04:33:43.698Z,12.6
2018-09-23T04:34:33.737Z,12.5
2018-09-23T04:35:23.832Z,12.5
2018-09-23T04:36:13.868Z,12.5
2018-09-23T04:37:03.935Z,12.5
2018-09-23T04:37:53.422Z,12.5
2018-09-23T04:38:43.767Z,12.4
2018-09-23T04:39:33.550Z,12.4
2018-09-23T04:40:24.222Z,12.4
2018-09-23T04:41:13.950Z,12.4
2018-09-23T04:42:04.299Z,12.4
2018-09-23T04:42:54.375Z,12.4
2018-09-23T04:43:44.437Z,12.4
2018-09-23T04:44:34.486Z,12.4
2018-09-23T04:45:24.264Z,12.4
2018-09-23T04:46:14.617Z,12.4
2018-09-23T04:47:04.692Z,12.4
2018-09-23T04:47:55.021Z,12.4
2018-09-23T04:48:44.585Z,12.4
2018-09-23T04:49:34.868Z,12.4
2018-09-23T04:50:24.951Z,12.4
2018-09-23T04:51:15.007Z,12.4
2018-09-23T04:52:05.062Z,12.4
2018-09-23T04:52:55.674Z,12.4
2018-09-23T04:53:45.178Z,12.4
2018-09-23T04:54:34.957Z,12.4
2018-09-23T04:55:25.372Z,12.4
2018-09-23T04:56:15.380Z,12.4
2018-09-23T04:57:05.447Z,12.4
2018-09-23T04:57:55.205Z,12.4
2018-09-23T04:58:45.555Z,12.4
2018-09-23T04:59:35.649Z,12.4
2018-09-23T05:00:25.669Z,12.4
2018-09-23T05:01:15.745Z,12.4
2018-09-23T05:02:05.817Z,12.4
2018-09-23T05:02:55.872Z,12.4
2018-09-23T05:03:45.928Z,12.5
2018-09-23T05:04:35.709Z,12.5
2018-09-23T05:05:26.057Z,12.5
2018-09-23T05:06:15.841Z,12.5
2018-09-23T05:07:06.185Z,12.5
2018-09-23T05:24:52.621Z,13.6
2018-09-23T05:25:42.362Z,13.8
2018-09-23T05:26:32.434Z,13.8
2018-09-23T05:27:22.787Z,13.9
2018-09-23T05:28:12.826Z,14.1
2018-09-23T05:29:02.898Z,14.1
2018-09-23T05:29:53.195Z,14.3
2018-09-23T05:30:43.015Z,14.4
2018-09-23T05:31:33.082Z,14.5
2018-09-23T05:32:23.150Z,14.6
2018-09-23T05:33:13.200Z,14.7
2018-09-23T05:34:03.261Z,14.9
2018-09-23T05:34:53.322Z,15
2018-09-23T05:35:43.392Z,15.1
2018-09-23T05:36:33.452Z,15.3
2018-09-23T05:37:23.513Z,15.4
2018-09-23T05:38:13.578Z,15.6
2018-09-23T05:39:03.349Z,15.7
2018-09-23T05:39:53.698Z,15.9
2018-09-23T05:40:43.777Z,16.1
2018-09-23T05:41:33.542Z,16.2
2018-09-23T05:42:23.887Z,16.4
2018-09-23T05:43:13.979Z,16.6
2018-09-23T05:44:04.251Z,16.8
2018-09-23T05:44:53.801Z,16.9
2018-09-23T05:45:44.129Z,17.1
2018-09-23T05:46:33.919Z,17.3
2018-09-23T05:47:24.269Z,17.5
2018-09-23T05:48:14.317Z,17.7
2018-09-23T05:49:04.379Z,17.9
2018-09-23T05:49:54.445Z,18.1
2018-09-23T05:50:44.511Z,18.4
2018-09-23T05:51:34.829Z,18.6
2018-09-23T05:52:24.664Z,18.8
2018-09-23T05:53:15.080Z,19
2018-09-23T05:54:04.784Z,17.1
2018-09-23T05:54:54.557Z,18.3
2018-09-23T05:55:44.909Z,25.4
2018-09-23T05:56:34.376Z,31.1
2018-09-23T05:57:25.016Z,32.1
2018-09-23T05:58:15.097Z,32.8
2018-09-23T05:59:04.859Z,33
2018-09-23T05:59:54.924Z,33.1
2018-09-23T06:00:45.266Z,32.9
2018-09-23T06:01:35.338Z,32.9
2018-09-23T06:02:25.645Z,32.8
2018-09-23T06:03:15.894Z,32.6
2018-09-23T06:04:05.528Z,32.5
2018-09-23T06:04:55.287Z,32.4
2018-09-23T06:05:45.689Z,32.3
2018-09-23T06:06:35.760Z,32.3
2018-09-23T06:07:26.038Z,32.2
2018-09-23T06:08:15.833Z,32.1
2018-09-23T06:09:05.608Z,32.1
2018-09-23T06:09:55.673Z,32.1
2018-09-23T06:10:46.011Z,32.7
2018-09-23T06:11:36.101Z,32.4
2018-09-23T06:12:26.174Z,34.5
2018-09-23T06:13:16.207Z,34.5
2018-09-23T06:14:06.295Z,36.5
2018-09-23T06:14:56.335Z,37.6
2018-09-23T06:15:46.405Z,37.8
2018-09-23T06:16:36.184Z,37.6
2018-09-23T06:17:26.537Z,37.3
2018-09-23T06:18:16.639Z,37.2
2018-09-23T06:19:06.403Z,37.3
2018-09-23T06:19:56.430Z,37.6
2018-09-23T06:20:46.779Z,37.9
2018-09-23T06:21:36.832Z,38.1
2018-09-23T06:22:26.899Z,38.3
2018-09-23T06:23:16.962Z,38.4
2018-09-23T06:24:07.037Z,38.6
2018-09-23T06:24:56.817Z,38.6
2018-09-23T06:25:47.205Z,38.8
2018-09-23T06:26:37.210Z,38.9
2018-09-23T06:27:26.994Z,39.1
2018-09-23T06:28:17.341Z,39.3
2018-09-23T06:29:07.147Z,39.4
2018-09-23T06:29:57.467Z,39.6
2018-09-23T06:30:47.551Z,39.8
2018-09-23T06:31:37.601Z,39.9
2018-09-23T06:32:27.664Z,40.1
2018-09-23T06:33:17.721Z,40.3
2018-09-23T06:34:08.077Z,40.4
2018-09-23T06:34:57.851Z,40.6
2018-09-23T06:35:47.908Z,40.7
2018-09-23T06:36:37.972Z,40.8
2018-09-23T06:37:28.077Z,41
2018-09-23T06:38:17.812Z,41.1
2018-09-23T06:39:08.162Z,41.3
2018-09-23T06:39:57.959Z,41.4
2018-09-23T06:40:48.296Z,41.6
2018-09-23T06:41:38.360Z,41.7
2018-09-23T06:42:28.236Z,41.7
2018-09-23T06:43:18.504Z,41.8
2018-09-23T06:44:08.543Z,41.5
2018-09-23T06:44:58.643Z,41.3
2018-09-23T06:45:48.903Z,41
2018-09-23T06:46:38.736Z,41.1
2018-09-23T06:47:29.034Z,41.3
2018-09-23T06:48:18.880Z,41.4
2018-09-23T06:49:08.940Z,41.6
2018-09-23T06:49:58.975Z,41.8
2018-09-23T06:50:49.051Z,41.9
2018-09-23T06:51:39.108Z,42
2018-09-23T06:52:28.889Z,42.1
2018-09-23T06:53:19.240Z,42.3
2018-09-23T06:54:09.346Z,42.4
2018-09-23T06:54:59.365Z,42.6
2018-09-23T06:55:49.432Z,42.8
2018-09-23T06:56:39.545Z,43
2018-09-23T06:57:29.289Z,43.1
2018-09-23T06:58:19.616Z,43.3
2018-09-23T06:59:09.676Z,43.4
2018-09-23T06:59:59.481Z,43.6
2018-09-23T07:00:49.260Z,43.8
2018-09-23T07:01:39.880Z,43.9
2018-09-23T07:02:29.892Z,44.1
2018-09-23T07:03:19.982Z,44.2
2018-09-23T07:04:10.050Z,44.3
2018-09-23T07:05:00.522Z,44.4
2018-09-23T07:05:50.186Z,44.6
2018-09-23T07:06:40.239Z,44.8
2018-09-23T07:07:30.322Z,44.9
2018-09-23T07:08:20.378Z,45.1
2018-09-23T07:09:10.143Z,45.3
2018-09-23T07:10:00.497Z,45.4
2018-09-23T07:10:50.559Z,45.5
2018-09-23T07:11:40.621Z,45.7
2018-09-23T07:12:30.399Z,45.9
2018-09-23T07:13:20.770Z,46
2018-09-23T07:14:10.829Z,46.1
2018-09-23T07:15:00.871Z,46.3
2018-09-23T07:15:50.658Z,46.4
2018-09-23T07:16:40.998Z,46.4
2018-09-23T07:17:31.080Z,46.2
2018-09-23T07:18:21.139Z,45.9
2018-09-23T07:19:11.197Z,45.9
2018-09-23T07:20:00.982Z,46.1
2018-09-23T07:20:51.317Z,46.3
2018-09-23T07:21:41.410Z,46.5
2018-09-23T07:22:31.177Z,46.6
2018-09-23T07:23:20.971Z,46.8
2018-09-23T07:24:12.350Z,46.9
2018-09-23T07:25:01.367Z,47.1
2018-09-23T07:25:51.727Z,47.2
2018-09-23T07:26:41.773Z,47.4
2018-09-23T07:27:31.550Z,47.6
2018-09-23T07:28:21.872Z,47.8
2018-09-23T07:29:11.948Z,47.9
2018-09-23T07:30:01.976Z,48.1
2018-09-23T07:30:52.105Z,48.3
2018-09-23T07:31:41.859Z,48.5
2018-09-23T07:32:32.221Z,48.6
2018-09-23T07:33:22.337Z,48.8
2018-09-23T07:34:12.367Z,49
2018-09-23T07:35:02.407Z,49.2
2018-09-23T07:35:52.457Z,49.3
2018-09-23T07:36:42.754Z,49.5
2018-09-23T07:37:32.299Z,49.7
2018-09-23T07:38:22.754Z,49.8
2018-09-23T07:39:12.724Z,50
2018-09-23T07:40:03.338Z,50.2
2018-09-23T07:40:52.843Z,50.4
2018-09-23T07:41:42.906Z,50.5
2018-09-23T07:42:32.962Z,50.7
2018-09-23T07:43:22.796Z,50.9
2018-09-23T07:44:13.091Z,51
2018-09-23T07:45:02.879Z,51.1
2018-09-23T07:45:53.231Z,51.3
2018-09-23T07:46:43.005Z,51.4
2018-09-23T07:47:33.349Z,51.6
2018-09-23T07:48:23.429Z,51.8
2018-09-23T07:50:03.852Z,52.1
2018-09-23T07:50:53.601Z,52.3
2018-09-23T07:52:33.725Z,52.6
2018-09-23T07:53:23.816Z,52.7
2018-09-23T07:54:13.588Z,52.9
2018-09-23T07:55:03.945Z,53.1
2018-09-23T07:55:53.978Z,53.2
2018-09-23T07:56:44.055Z,53.4
2018-09-23T07:57:34.120Z,53.5
2018-09-23T07:58:23.892Z,53.6
2018-09-23T07:59:14.290Z,53.8
2018-09-23T08:00:04.017Z,53.9
2018-09-23T08:00:54.371Z,54.1
2018-09-23T08:01:43.850Z,54.3
2018-09-23T08:02:34.498Z,54.4
2018-09-23T08:03:24.844Z,54.6
2018-09-23T08:04:14.047Z,54.7
2018-09-23T08:05:04.395Z,54.8
2018-09-23T08:05:54.743Z,55
2018-09-23T08:06:44.811Z,55.1
2018-09-23T08:07:34.599Z,55.3
2018-09-23T08:08:24.932Z,55.4
2018-09-23T08:09:15.007Z,55.6
2018-09-23T08:10:05.075Z,55.8
2018-09-23T08:10:55.124Z,55.9
2018-09-23T08:11:44.905Z,56
2018-09-23T08:12:36.003Z,56.1
2018-09-23T08:13:26.110Z,56.3
2018-09-23T08:14:17.842Z,56.4
2018-09-23T08:15:06.634Z,56.6
2018-09-23T08:15:55.228Z,56.7
2018-09-23T08:16:45.583Z,56.8
2018-09-23T08:17:35.894Z,56.9
2018-09-23T08:18:25.724Z,57
2018-09-23T08:19:15.674Z,57.1
2018-09-23T08:20:06.278Z,57.3
2018-09-23T08:20:56.222Z,57.4
2018-09-23T08:21:45.957Z,57.6
2018-09-23T08:22:35.748Z,57.7
2018-09-23T08:23:26.086Z,57.9
2018-09-23T08:24:16.138Z,58
2018-09-23T08:25:06.287Z,58.1
2018-09-23T08:25:56.294Z,58.3
2018-09-23T08:26:46.044Z,58.4
2018-09-23T08:27:36.386Z,58.4
2018-09-23T08:28:26.459Z,58.5
2018-09-23T08:30:06.586Z,58.7
2018-09-23T08:30:56.364Z,58.8
2018-09-23T08:31:46.754Z,58.8
2018-09-23T08:32:36.496Z,58.9
2018-09-23T08:33:26.568Z,59.1
2018-09-23T08:34:16.634Z,59.2
2018-09-23T08:35:06.968Z,59.3
2018-09-23T08:35:57.032Z,59.4
2018-09-23T08:36:46.834Z,59.6
2018-09-23T08:37:36.879Z,59.7
2018-09-23T08:38:27.551Z,59.9
2018-09-23T08:39:17.305Z,59.9
2018-09-23T08:40:07.784Z,59.9
2018-09-23T08:40:57.412Z,60.1
2018-09-23T08:41:47.481Z,60.2
2018-09-23T08:42:37.256Z,60.4
2018-09-23T08:43:27.667Z,60.5
2018-09-23T08:44:17.687Z,60.7
2018-09-23T08:45:07.733Z,60.8
2018-09-23T08:45:57.518Z,60.9
2018-09-23T08:46:47.920Z,61
2018-09-23T08:47:38.263Z,61.1
2018-09-23T08:48:28.426Z,61.2
2018-09-23T08:49:18.087Z,61.3
2018-09-23T08:50:08.162Z,61.3
2018-09-23T08:50:58.205Z,61.2
2018-09-23T08:51:48.115Z,61.1
2018-09-23T08:52:38.575Z,61.2
2018-09-23T08:53:28.086Z,61.3
2018-09-23T08:54:18.684Z,61.4
2018-09-23T08:55:08.487Z,61.6
2018-09-23T08:55:58.560Z,61.7
2018-09-23T08:56:48.694Z,61.8
2018-09-23T08:57:38.468Z,61.9
2018-09-23T08:58:28.804Z,62
2018-09-23T08:59:19.078Z,62.1
2018-09-23T09:00:08.874Z,62.3
2018-09-23T09:00:58.673Z,62.4
2018-09-23T09:01:49.004Z,62.5
2018-09-23T09:02:39.077Z,62.6
2018-09-23T09:03:28.929Z,62.6
2018-09-23T09:04:18.913Z,62.8
2018-09-23T09:05:09.259Z,62.8
2018-09-23T09:05:59.344Z,62.9
2018-09-23T09:06:49.400Z,63.1
2018-09-23T09:07:39.458Z,63.2
2018-09-23T09:08:29.511Z,63.3
2018-09-23T09:09:19.595Z,63.3
2018-09-23T09:10:09.371Z,63.4
2018-09-23T09:10:59.472Z,63.5
2018-09-23T09:11:49.996Z,63.6
2018-09-23T09:12:39.573Z,63.7
2018-09-23T09:13:29.921Z,63.8
2018-09-23T09:14:19.720Z,63.9
2018-09-23T09:15:09.749Z,63.9
2018-09-23T09:15:59.829Z,64.1
2018-09-23T09:16:49.863Z,64.1
2018-09-23T09:17:40.205Z,64.3
2018-09-23T09:18:30.284Z,64.3
2018-09-23T09:19:20.068Z,64.4
2018-09-23T09:20:10.415Z,64.6
2018-09-23T09:21:00.468Z,64.6
2018-09-23T09:21:50.529Z,64.7
2018-09-23T09:22:40.589Z,64.8
2018-09-23T09:39:37.054Z,66.6
2018-09-23T09:40:27.124Z,66.7
2018-09-23T09:41:16.809Z,66.8
2018-09-23T09:42:06.867Z,66.9
2018-09-23T09:42:57.161Z,66.9
2018-09-23T09:43:47.262Z,67.1
2018-09-23T09:44:37.324Z,67.1
2018-09-23T09:45:26.824Z,67.3
2018-09-23T09:46:17.449Z,67.4
2018-09-23T09:47:07.520Z,67.4
2018-09-23T09:47:57.269Z,67.5
2018-09-23T09:48:47.701Z,67.6
2018-09-23T09:49:37.707Z,67.6
2018-09-23T09:50:27.768Z,67.7
2018-09-23T09:51:17.902Z,67.8
2018-09-23T09:52:07.907Z,67.9
2018-09-23T09:52:57.696Z,67.9
2018-09-23T09:53:48.038Z,67.9
2018-09-23T09:54:38.111Z,68
2018-09-23T09:55:28.566Z,68
2018-09-23T09:56:18.274Z,68.1
2018-09-23T09:57:08.284Z,68.1
2018-09-23T09:57:58.361Z,68.1
2018-09-23T09:58:48.139Z,68.2
2018-09-23T09:59:38.476Z,68.3
2018-09-23T10:00:28.256Z,68.4
2018-09-23T10:01:18.619Z,68.5
2018-09-23T10:02:08.379Z,68.6
2018-09-23T10:02:58.733Z,68.8
2018-09-23T10:03:48.764Z,68.8
2018-09-23T10:04:38.866Z,68.9
2018-09-23T10:05:28.938Z,69
2018-09-23T10:06:18.714Z,69.1
2018-09-23T10:07:08.788Z,69.1
2018-09-23T10:07:58.844Z,69.2
2018-09-23T10:08:48.933Z,69.4
2018-09-23T10:09:39.253Z,69.4
2018-09-23T10:10:29.053Z,69.5
2018-09-23T10:11:18.831Z,69.6
2018-09-23T10:12:09.217Z,69.6
2018-09-23T10:12:59.515Z,69.8
2018-09-23T10:13:49.328Z,69.8
2018-09-23T10:14:39.372Z,69.9
2018-09-23T10:15:29.132Z,70
2018-09-23T10:16:19.757Z,70.1
2018-09-23T10:17:09.817Z,70.2
2018-09-23T10:17:59.889Z,70.3
2018-09-23T10:18:49.942Z,70.4
2018-09-23T10:19:39.756Z,70.4
2018-09-23T10:20:30.090Z,70.5
2018-09-23T10:21:20.140Z,70.6
2018-09-23T10:22:10.212Z,70.6
2018-09-23T10:23:00.524Z,70.7
2018-09-23T10:23:50.533Z,70.8
2018-09-23T10:24:40.395Z,70.9
2018-09-23T10:25:30.481Z,70.9
2018-09-23T10:26:20.521Z,71
2018-09-23T10:27:10.590Z,71.1
2018-09-23T10:28:00.384Z,71.2
2018-09-23T10:28:50.449Z,71.3
2018-09-23T10:29:40.504Z,71.4
2018-09-23T10:30:30.850Z,71.4
2018-09-23T10:31:21.040Z,71.5
2018-09-23T10:32:10.979Z,71.6
2018-09-23T10:33:01.086Z,71.7
2018-09-23T10:33:51.131Z,71.8
2018-09-23T10:34:40.989Z,71.8
2018-09-23T10:35:30.674Z,71.9
2018-09-23T10:36:21.328Z,71.9
2018-09-23T10:37:11.370Z,72
2018-09-23T10:38:01.437Z,72.1
2018-09-23T10:38:50.929Z,72.2
2018-09-23T10:39:41.309Z,72.3
2018-09-23T10:40:31.633Z,72.3
2018-09-23T10:41:21.501Z,72.4
2018-09-23T10:42:11.475Z,72.5
2018-09-23T10:43:01.820Z,72.6
2018-09-23T10:43:51.880Z,72.7
2018-09-23T10:44:41.948Z,72.8
2018-09-23T10:45:32.002Z,72.8
2018-09-23T10:46:22.080Z,72.9
2018-09-23T10:47:12.223Z,73
2018-09-23T10:48:01.995Z,73.1
2018-09-23T10:48:52.268Z,73.1
2018-09-23T10:49:42.384Z,73.1
2018-09-23T10:50:32.418Z,73.3
2018-09-23T10:51:22.216Z,73.3
2018-09-23T10:52:12.497Z,73.4
2018-09-23T10:53:02.542Z,73.4
2018-09-23T10:53:52.637Z,73.5
2018-09-23T10:54:42.407Z,73.5
2018-09-23T10:55:32.984Z,73.6
2018-09-23T10:56:22.842Z,73.7
2018-09-23T10:57:12.893Z,73.8
2018-09-23T10:58:03.012Z,73.8
2018-09-23T10:58:52.774Z,73.9
2018-09-23T10:59:43.099Z,73.9
2018-09-23T11:00:33.161Z,73.9
2018-09-23T11:01:22.929Z,74.1
2018-09-23T11:02:13.006Z,74.1
2018-09-23T11:03:03.346Z,74.1
2018-09-23T11:03:53.190Z,74.2
2018-09-23T11:04:42.911Z,74.3
2018-09-23T11:05:33.276Z,74.4
2018-09-23T11:06:23.336Z,74.4
2018-09-23T11:07:13.703Z,74.4
2018-09-23T11:08:03.149Z,74.5
2018-09-23T11:08:53.811Z,74.6
2018-09-23T11:09:43.777Z,74.7
2018-09-23T11:10:33.656Z,74.7
2018-09-23T11:11:24.031Z,74.8
2018-09-23T11:12:14.042Z,74.8
2018-09-23T11:13:04.099Z,74.9
2018-09-23T11:13:54.170Z,74.9
2018-09-23T11:14:43.948Z,75
2018-09-23T11:15:34.010Z,75.1
2018-09-23T11:16:24.076Z,75.1
2018-09-23T11:17:14.423Z,75.2
2018-09-23T11:18:04.495Z,75.3
2018-09-23T11:18:54.551Z,75.3
2018-09-23T11:19:44.628Z,75.3
2018-09-23T11:20:34.670Z,75.4
2018-09-23T11:21:24.750Z,75.5
2018-09-23T11:22:14.795Z,75.6
2018-09-23T11:23:04.899Z,75.6
2018-09-23T11:23:54.990Z,75.7
2018-09-23T11:24:45.368Z,75.7
2018-09-23T11:25:34.485Z,75.8
2018-09-23T11:26:25.455Z,75.8
2018-09-23T11:27:15.205Z,75.8
2018-09-23T11:28:05.255Z,75.9
2018-09-23T11:28:55.327Z,75.8
2018-09-23T11:29:45.379Z,75.9
2018-09-23T11:30:35.768Z,76.1
2018-09-23T11:31:25.514Z,74.9
2018-09-23T11:32:15.287Z,73.9
2018-09-23T11:33:05.651Z,74.4
2018-09-23T11:33:55.689Z,75.1
2018-09-23T11:34:45.759Z,75.9
2018-09-23T11:35:35.827Z,76.2
2018-09-23T11:36:25.912Z,76.2
2018-09-23T11:37:15.384Z,76
2018-09-23T11:38:06.037Z,75.8
2018-09-23T11:38:56.095Z,75.8
2018-09-23T11:39:46.159Z,75.8
2018-09-23T11:40:36.231Z,75.9
2018-09-23T11:41:26.099Z,76.1
2018-09-23T11:42:16.347Z,76.1
2018-09-23T11:43:06.430Z,76.2
2018-09-23T11:43:56.186Z,76.2
2018-09-23T11:44:46.524Z,76.3
2018-09-23T11:45:36.328Z,76.3
2018-09-23T11:46:26.393Z,76.3
2018-09-23T11:47:16.450Z,76.4
2018-09-23T11:48:06.505Z,76.4
2018-09-23T11:48:56.844Z,76.5
2018-09-23T11:49:46.911Z,76.6
2018-09-23T11:50:37.053Z,76.6
2018-09-23T11:51:27.133Z,76.6
2018-09-23T11:52:16.913Z,76.7
2018-09-23T11:53:07.183Z,76.8
2018-09-23T11:53:57.228Z,76.8
2018-09-23T11:54:47.039Z,76.8
2018-09-23T11:55:37.388Z,76.8
2018-09-23T11:56:27.153Z,76.9
2018-09-23T11:57:17.483Z,76.9
2018-09-23T11:58:07.560Z,76.9
2018-09-23T11:58:57.974Z,76.9
2018-09-23T11:59:47.719Z,77
2018-09-23T12:00:37.463Z,77
2018-09-23T12:01:27.847Z,77.1
2018-09-23T12:02:18.270Z,77.1